sensor_id;sensor_type;location;lat;lon;timestamp;pressure;altitude;pressure_sealevel;temperature;humidity
79729;BME280;69218;52.132;5.418;2023-05-07T00:01:13;101769.28;;;14.62;80.52
79729;BME280;69218;52.132;5.418;2023-05-07T00:03:40;101759.84;;;14.60;79.73
79729;BME280;69218;52.132;5.418;2023-05-07T00:06:07;101765.22;;;14.58;81.10
79729;BME280;69218;52.132;5.418;2023-05-07T00:08:33;101770.06;;;14.53;78.30
79729;BME280;69218;52.132;5.418;2023-05-07T00:11:00;101771.97;;;14.51;78.19
79729;BME280;69218;52.132;5.418;2023-05-07T00:13:26;101771.03;;;14.52;80.23
79729;BME280;69218;52.132;5.418;2023-05-07T00:15:53;101777.38;;;14.49;81.21
79729;BME280;69218;52.132;5.418;2023-05-07T00:18:20;101772.22;;;14.48;77.94
79729;BME280;69218;52.132;5.418;2023-05-07T00:20:48;101773.28;;;14.45;80.25
79729;BME280;69218;52.132;5.418;2023-05-07T00:23:15;101768.00;;;14.45;79.02
79729;BME280;69218;52.132;5.418;2023-05-07T00:25:41;101767.28;;;14.43;79.47
79729;BME280;69218;52.132;5.418;2023-05-07T00:28:08;101769.47;;;14.38;81.33
79729;BME280;69218;52.132;5.418;2023-05-07T00:30:34;101760.25;;;14.33;81.73
79729;BME280;69218;52.132;5.418;2023-05-07T00:33:01;101754.25;;;14.30;79.81
79729;BME280;69218;52.132;5.418;2023-05-07T00:35:29;101754.38;;;14.29;79.50
79729;BME280;69218;52.132;5.418;2023-05-07T00:37:55;101749.34;;;14.26;80.97
79729;BME280;69218;52.132;5.418;2023-05-07T00:40:22;101752.22;;;14.23;80.42
79729;BME280;69218;52.132;5.418;2023-05-07T00:42:48;101752.47;;;14.20;81.64
79729;BME280;69218;52.132;5.418;2023-05-07T00:45:16;101756.78;;;14.21;81.18
79729;BME280;69218;52.132;5.418;2023-05-07T00:47:43;101748.03;;;14.20;80.32
79729;BME280;69218;52.132;5.418;2023-05-07T00:50:10;101748.31;;;14.17;81.48
79729;BME280;69218;52.132;5.418;2023-05-07T00:52:39;101745.75;;;14.16;79.59
79729;BME280;69218;52.132;5.418;2023-05-07T00:55:06;101748.41;;;14.16;79.92
79729;BME280;69218;52.132;5.418;2023-05-07T00:57:37;101748.41;;;14.16;78.53
79729;BME280;69218;52.132;5.418;2023-05-07T01:00:04;101743.88;;;14.18;79.25
79729;BME280;69218;52.132;5.418;2023-05-07T01:02:31;101741.31;;;14.16;79.31
79729;BME280;69218;52.132;5.418;2023-05-07T01:04:58;101745.75;;;14.16;77.42
79729;BME280;69218;52.132;5.418;2023-05-07T01:07:27;101740.50;;;14.16;80.14
79729;BME280;69218;52.132;5.418;2023-05-07T01:09:53;101733.66;;;14.13;80.24
79729;BME280;69218;52.132;5.418;2023-05-07T01:12:20;101733.94;;;14.10;79.00
79729;BME280;69218;52.132;5.418;2023-05-07T01:14:47;101737.63;;;14.08;77.36
79729;BME280;69218;52.132;5.418;2023-05-07T01:17:16;101737.50;;;14.09;80.10
79729;BME280;69218;52.132;5.418;2023-05-07T01:19:43;101741.09;;;14.08;79.02
79729;BME280;69218;52.132;5.418;2023-05-07T01:22:10;101735.00;;;14.08;80.78
79729;BME280;69218;52.132;5.418;2023-05-07T01:24:37;101736.94;;;14.06;81.16
79729;BME280;69218;52.132;5.418;2023-05-07T01:27:04;101738.94;;;14.02;78.37
79729;BME280;69218;52.132;5.418;2023-05-07T01:29:31;101742.56;;;14.01;79.20
79729;BME280;69218;52.132;5.418;2023-05-07T01:31:59;101741.84;;;13.99;81.89
79729;BME280;69218;52.132;5.418;2023-05-07T01:34:28;101737.53;;;13.98;81.03
79729;BME280;69218;52.132;5.418;2023-05-07T01:36:56;101744.47;;;13.99;83.05
79729;BME280;69218;52.132;5.418;2023-05-07T01:39:25;101747.25;;;13.97;80.39
79729;BME280;69218;52.132;5.418;2023-05-07T01:41:56;101738.38;;;13.98;80.49
79729;BME280;69218;52.132;5.418;2023-05-07T01:44:23;101738.50;;;13.97;78.25
79729;BME280;69218;52.132;5.418;2023-05-07T01:46:50;101736.44;;;14.00;79.51
79729;BME280;69218;52.132;5.418;2023-05-07T01:49:17;101748.56;;;14.03;82.67
79729;BME280;69218;52.132;5.418;2023-05-07T01:51:44;101743.66;;;13.98;80.79
79729;BME280;69218;52.132;5.418;2023-05-07T01:54:11;101740.31;;;13.96;79.91
79729;BME280;69218;52.132;5.418;2023-05-07T01:56:37;101748.22;;;13.96;78.47
79729;BME280;69218;52.132;5.418;2023-05-07T01:59:04;101735.88;;;13.97;79.76
79729;BME280;69218;52.132;5.418;2023-05-07T02:01:31;101736.56;;;13.99;81.85
79729;BME280;69218;52.132;5.418;2023-05-07T02:03:58;101734.19;;;13.96;83.14
79729;BME280;69218;52.132;5.418;2023-05-07T02:06:24;101736.94;;;13.94;83.37
79729;BME280;69218;52.132;5.418;2023-05-07T02:08:51;101738.63;;;13.95;83.30
79729;BME280;69218;52.132;5.418;2023-05-07T02:11:17;101738.63;;;13.95;82.58
79729;BME280;69218;52.132;5.418;2023-05-07T02:13:44;101749.19;;;13.95;82.90
79729;BME280;69218;52.132;5.418;2023-05-07T02:16:11;101747.38;;;13.96;81.63
79729;BME280;69218;52.132;5.418;2023-05-07T02:18:37;101747.25;;;13.97;84.12
79729;BME280;69218;52.132;5.418;2023-05-07T02:21:04;101745.56;;;13.96;83.81
79729;BME280;69218;52.132;5.418;2023-05-07T02:23:30;101736.00;;;13.95;83.94
79729;BME280;69218;52.132;5.418;2023-05-07T02:25:57;101741.38;;;13.94;81.88
79729;BME280;69218;52.132;5.418;2023-05-07T02:28:23;101736.94;;;13.94;78.74
79729;BME280;69218;52.132;5.418;2023-05-07T02:30:50;101738.63;;;13.95;81.16
79729;BME280;69218;52.132;5.418;2023-05-07T02:33:16;101737.78;;;13.95;78.98
79729;BME280;69218;52.132;5.418;2023-05-07T02:35:43;101739.56;;;13.94;80.65
79729;BME280;69218;52.132;5.418;2023-05-07T02:38:10;101736.84;;;13.96;80.59
79729;BME280;69218;52.132;5.418;2023-05-07T02:40:37;101740.41;;;13.95;79.75
79729;BME280;69218;52.132;5.418;2023-05-07T02:43:05;101745.69;;;13.95;80.84
79729;BME280;69218;52.132;5.418;2023-05-07T02:45:33;101731.66;;;13.94;81.41
79729;BME280;69218;52.132;5.418;2023-05-07T02:47:59;101737.78;;;13.95;80.67
79729;BME280;69218;52.132;5.418;2023-05-07T02:50:26;101731.78;;;13.93;82.41
79729;BME280;69218;52.132;5.418;2023-05-07T02:52:53;101738.03;;;13.92;82.07
79729;BME280;69218;52.132;5.418;2023-05-07T02:55:19;101739.13;;;13.89;84.54
79729;BME280;69218;52.132;5.418;2023-05-07T02:57:46;101731.31;;;13.88;83.54
79729;BME280;69218;52.132;5.418;2023-05-07T03:00:14;101733.94;;;13.88;84.05
79729;BME280;69218;52.132;5.418;2023-05-07T03:02:41;101728.56;;;13.89;82.87
79729;BME280;69218;52.132;5.418;2023-05-07T03:05:08;101742.59;;;13.90;83.58
79729;BME280;69218;52.132;5.418;2023-05-07T03:07:35;101741.63;;;13.91;84.10
79729;BME280;69218;52.132;5.418;2023-05-07T03:10:03;101739.81;;;13.91;82.35
79729;BME280;69218;52.132;5.418;2023-05-07T03:12:30;101733.59;;;13.92;84.17
79729;BME280;69218;52.132;5.418;2023-05-07T03:14:56;101737.31;;;13.90;82.99
79729;BME280;69218;52.132;5.418;2023-05-07T03:17:23;101734.69;;;13.90;83.50
79729;BME280;69218;52.132;5.418;2023-05-07T03:19:49;101736.72;;;13.86;82.66
79729;BME280;69218;52.132;5.418;2023-05-07T03:22:16;101732.53;;;13.84;84.70
79729;BME280;69218;52.132;5.418;2023-05-07T03:24:42;101730.94;;;13.81;83.67
79729;BME280;69218;52.132;5.418;2023-05-07T03:27:09;101734.56;;;13.80;83.18
79729;BME280;69218;52.132;5.418;2023-05-07T03:29:35;101731.91;;;13.80;82.37
79729;BME280;69218;52.132;5.418;2023-05-07T03:32:02;101730.13;;;13.81;84.12
79729;BME280;69218;52.132;5.418;2023-05-07T03:34:28;101732.75;;;13.81;84.60
79729;BME280;69218;52.132;5.418;2023-05-07T03:36:55;101733.84;;;13.78;84.58
79729;BME280;69218;52.132;5.418;2023-05-07T03:39:22;101736.59;;;13.77;83.42
79729;BME280;69218;52.132;5.418;2023-05-07T03:41:48;101737.31;;;13.79;84.29
79729;BME280;69218;52.132;5.418;2023-05-07T03:44:15;101727.03;;;13.76;82.59
79729;BME280;69218;52.132;5.418;2023-05-07T03:46:41;101736.72;;;13.75;83.84
79729;BME280;69218;52.132;5.418;2023-05-07T03:49:08;101737.66;;;13.74;83.11
79729;BME280;69218;52.132;5.418;2023-05-07T03:51:34;101728.09;;;13.73;84.59
79729;BME280;69218;52.132;5.418;2023-05-07T03:54:02;101731.56;;;13.73;82.94
79729;BME280;69218;52.132;5.418;2023-05-07T03:56:28;101734.19;;;13.73;82.31
79729;BME280;69218;52.132;5.418;2023-05-07T03:58:55;101743.81;;;13.74;83.86
79729;BME280;69218;52.132;5.418;2023-05-07T04:01:22;101749.06;;;13.74;83.00
79729;BME280;69218;52.132;5.418;2023-05-07T04:03:48;101742.84;;;13.76;84.58
79729;BME280;69218;52.132;5.418;2023-05-07T04:06:16;101754.44;;;13.73;83.62
79729;BME280;69218;52.132;5.418;2023-05-07T04:08:46;101750.84;;;13.74;85.61
79729;BME280;69218;52.132;5.418;2023-05-07T04:11:13;101753.59;;;13.72;83.21
79729;BME280;69218;52.132;5.418;2023-05-07T04:13:39;101751.81;;;13.73;85.69
79729;BME280;69218;52.132;5.418;2023-05-07T04:16:06;101754.56;;;13.71;84.40
79729;BME280;69218;52.132;5.418;2023-05-07T04:18:33;101753.47;;;13.74;84.25
79729;BME280;69218;52.132;5.418;2023-05-07T04:20:59;101762.00;;;13.78;84.78
79729;BME280;69218;52.132;5.418;2023-05-07T04:23:25;101752.28;;;13.78;84.96
79729;BME280;69218;52.132;5.418;2023-05-07T04:25:52;101749.53;;;13.80;84.57
79729;BME280;69218;52.132;5.418;2023-05-07T04:28:18;101757.56;;;13.78;83.96
79729;BME280;69218;52.132;5.418;2023-05-07T04:30:45;101759.22;;;13.79;84.83
79729;BME280;69218;52.132;5.418;2023-05-07T04:33:11;101758.41;;;13.79;84.43
79729;BME280;69218;52.132;5.418;2023-05-07T04:35:40;101760.06;;;13.80;85.16
79729;BME280;69218;52.132;5.418;2023-05-07T04:38:06;101753.97;;;13.79;83.83
79729;BME280;69218;52.132;5.418;2023-05-07T04:40:33;101763.44;;;13.82;85.25
79729;BME280;69218;52.132;5.418;2023-05-07T04:43:01;101763.31;;;13.83;84.63
79729;BME280;69218;52.132;5.418;2023-05-07T04:45:27;101755.41;;;13.83;84.57
79729;BME280;69218;52.132;5.418;2023-05-07T04:47:54;101764.88;;;13.86;85.58
79729;BME280;69218;52.132;5.418;2023-05-07T04:50:20;101767.63;;;13.84;85.69
79729;BME280;69218;52.132;5.418;2023-05-07T04:52:49;101754.56;;;13.83;85.40
79729;BME280;69218;52.132;5.418;2023-05-07T04:55:16;101765.00;;;13.84;85.74
79729;BME280;69218;52.132;5.418;2023-05-07T04:57:42;101770.25;;;13.84;85.60
79729;BME280;69218;52.132;5.418;2023-05-07T05:00:09;101778.16;;;13.84;85.15
79729;BME280;69218;52.132;5.418;2023-05-07T05:02:36;101771.94;;;13.85;85.71
79729;BME280;69218;52.132;5.418;2023-05-07T05:05:03;101775.28;;;13.87;85.39
79729;BME280;69218;52.132;5.418;2023-05-07T05:07:30;101776.94;;;13.88;84.97
79729;BME280;69218;52.132;5.418;2023-05-07T05:09:56;101775.19;;;13.89;85.48
79729;BME280;69218;52.132;5.418;2023-05-07T05:12:23;101776.13;;;13.88;84.80
79729;BME280;69218;52.132;5.418;2023-05-07T05:14:50;101772.53;;;13.89;84.07
79729;BME280;69218;52.132;5.418;2023-05-07T05:17:16;101773.38;;;13.89;84.96
79729;BME280;69218;52.132;5.418;2023-05-07T05:19:43;101779.38;;;13.91;84.89
79729;BME280;69218;52.132;5.418;2023-05-07T05:22:09;101781.88;;;13.93;84.97
79729;BME280;69218;52.132;5.418;2023-05-07T05:24:36;101779.09;;;13.94;84.94
79729;BME280;69218;52.132;5.418;2023-05-07T05:27:02;101776.38;;;13.96;84.10
79729;BME280;69218;52.132;5.418;2023-05-07T05:29:29;101778.28;;;13.94;83.84
79729;BME280;69218;52.132;5.418;2023-05-07T05:31:57;101781.66;;;13.96;84.28
79729;BME280;69218;52.132;5.418;2023-05-07T05:34:24;101785.13;;;13.96;84.58
79729;BME280;69218;52.132;5.418;2023-05-07T05:36:50;101781.25;;;14.00;84.09
79729;BME280;69218;52.132;5.418;2023-05-07T05:39:17;101795.06;;;14.04;84.47
79729;BME280;69218;52.132;5.418;2023-05-07T05:41:43;101799.38;;;14.05;83.39
79729;BME280;69218;52.132;5.418;2023-05-07T05:44:10;101797.31;;;14.09;84.00
79729;BME280;69218;52.132;5.418;2023-05-07T05:46:36;101803.41;;;14.09;83.57
79729;BME280;69218;52.132;5.418;2023-05-07T05:49:03;101801.28;;;14.14;84.75
79729;BME280;69218;52.132;5.418;2023-05-07T05:51:29;101808.81;;;14.19;84.73
79729;BME280;69218;52.132;5.418;2023-05-07T05:53:56;101813.84;;;14.22;85.34
79729;BME280;69218;52.132;5.418;2023-05-07T05:56:23;101810.97;;;14.25;85.01
79729;BME280;69218;52.132;5.418;2023-05-07T05:58:49;101806.16;;;14.30;84.32
79729;BME280;69218;52.132;5.418;2023-05-07T06:01:19;101813.13;;;14.31;84.40
79729;BME280;69218;52.132;5.418;2023-05-07T06:03:46;101812.88;;;14.34;83.53
79729;BME280;69218;52.132;5.418;2023-05-07T06:06:12;101822.22;;;14.38;84.25
79729;BME280;69218;52.132;5.418;2023-05-07T06:08:40;101822.34;;;14.37;84.42
79729;BME280;69218;52.132;5.418;2023-05-07T06:11:07;101825.94;;;14.36;84.89
79729;BME280;69218;52.132;5.418;2023-05-07T06:13:34;101822.47;;;14.35;84.10
79729;BME280;69218;52.132;5.418;2023-05-07T06:16:00;101822.47;;;14.35;85.02
79729;BME280;69218;52.132;5.418;2023-05-07T06:18:27;101828.44;;;14.37;85.33
79729;BME280;69218;52.132;5.418;2023-05-07T06:20:53;101823.78;;;14.41;84.85
79729;BME280;69218;52.132;5.418;2023-05-07T06:23:20;101832.41;;;14.43;85.48
79729;BME280;69218;52.132;5.418;2023-05-07T06:25:49;101831.34;;;14.45;84.43
79729;BME280;69218;52.132;5.418;2023-05-07T06:28:17;101822.22;;;14.49;84.29
79729;BME280;69218;52.132;5.418;2023-05-07T06:30:43;101821.25;;;14.50;84.04
79729;BME280;69218;52.132;5.418;2023-05-07T06:33:10;101826.31;;;14.53;84.88
79729;BME280;69218;52.132;5.418;2023-05-07T06:35:37;101822.44;;;14.57;85.16
79729;BME280;69218;52.132;5.418;2023-05-07T06:38:03;101825.69;;;14.61;84.66
79729;BME280;69218;52.132;5.418;2023-05-07T06:40:30;101824.84;;;14.61;84.10
79729;BME280;69218;52.132;5.418;2023-05-07T06:42:56;101830.97;;;14.61;85.20
79729;BME280;69218;52.132;5.418;2023-05-07T06:45:23;101828.19;;;14.63;84.30
79729;BME280;69218;52.132;5.418;2023-05-07T06:47:51;101827.34;;;14.62;85.17
79729;BME280;69218;52.132;5.418;2023-05-07T06:50:18;101824.72;;;14.62;84.59
79729;BME280;69218;52.132;5.418;2023-05-07T06:52:44;101832.50;;;14.64;84.06
79729;BME280;69218;52.132;5.418;2023-05-07T06:55:10;101833.69;;;14.71;85.64
79729;BME280;69218;52.132;5.418;2023-05-07T06:57:38;101833.44;;;14.74;85.38
79729;BME280;69218;52.132;5.418;2023-05-07T07:00:07;101832.22;;;14.78;85.02
79729;BME280;69218;52.132;5.418;2023-05-07T07:02:39;101829.59;;;14.78;85.73
79729;BME280;69218;52.132;5.418;2023-05-07T07:05:06;101830.75;;;14.85;84.46
79729;BME280;69218;52.132;5.418;2023-05-07T07:07:33;101832.19;;;14.89;84.70
79729;BME280;69218;52.132;5.418;2023-05-07T07:09:59;101824.84;;;14.93;84.75
79729;BME280;69218;52.132;5.418;2023-05-07T07:12:26;101827.59;;;15.02;85.20
79729;BME280;69218;52.132;5.418;2023-05-07T07:14:52;101826.53;;;15.15;83.96
79729;BME280;69218;52.132;5.418;2023-05-07T07:17:20;101830.34;;;15.22;84.35
79729;BME280;69218;52.132;5.418;2023-05-07T07:19:47;101824.88;;;15.34;83.96
79729;BME280;69218;52.132;5.418;2023-05-07T07:22:13;101831.19;;;15.43;82.69
79729;BME280;69218;52.132;5.418;2023-05-07T07:24:39;101821.41;;;15.55;82.55
79729;BME280;69218;52.132;5.418;2023-05-07T07:27:06;101827.66;;;15.75;83.04
79729;BME280;69218;52.132;5.418;2023-05-07T07:29:32;101823.13;;;15.86;82.49
79729;BME280;69218;52.132;5.418;2023-05-07T07:31:59;101821.44;;;15.85;81.57
79729;BME280;69218;52.132;5.418;2023-05-07T07:34:26;101825.38;;;15.91;80.94
79729;BME280;69218;52.132;5.418;2023-05-07T07:36:52;101835.41;;;15.97;80.01
79729;BME280;69218;52.132;5.418;2023-05-07T07:39:19;101835.88;;;16.02;80.94
79729;BME280;69218;52.132;5.418;2023-05-07T07:41:45;101840.63;;;16.08;80.53
79729;BME280;69218;52.132;5.418;2023-05-07T07:44:12;101837.69;;;16.11;79.13
79729;BME280;69218;52.132;5.418;2023-05-07T07:46:41;101841.34;;;16.20;81.25
79729;BME280;69218;52.132;5.418;2023-05-07T07:49:08;101844.56;;;16.24;79.59
79729;BME280;69218;52.132;5.418;2023-05-07T07:51:34;101843.91;;;16.31;80.25
79729;BME280;69218;52.132;5.418;2023-05-07T07:54:01;101846.16;;;16.45;79.39
79729;BME280;69218;52.132;5.418;2023-05-07T07:56:28;101843.28;;;16.58;79.68
79729;BME280;69218;52.132;5.418;2023-05-07T07:58:55;101846.75;;;16.68;79.16
79729;BME280;69218;52.132;5.418;2023-05-07T08:01:21;101848.50;;;16.79;78.00
79729;BME280;69218;52.132;5.418;2023-05-07T08:03:48;101846.25;;;16.84;77.82
79729;BME280;69218;52.132;5.418;2023-05-07T08:06:16;101847.50;;;16.80;77.07
79729;BME280;69218;52.132;5.418;2023-05-07T08:08:42;101846.94;;;16.77;78.31
79729;BME280;69218;52.132;5.418;2023-05-07T08:11:09;101848.91;;;16.74;78.30
79729;BME280;69218;52.132;5.418;2023-05-07T08:13:36;101855.88;;;16.75;78.20
79729;BME280;69218;52.132;5.418;2023-05-07T08:16:04;101851.13;;;16.79;78.49
79729;BME280;69218;52.132;5.418;2023-05-07T08:18:31;101851.41;;;16.76;78.26
79729;BME280;69218;52.132;5.418;2023-05-07T08:20:57;101852.53;;;16.73;77.94
79729;BME280;69218;52.132;5.418;2023-05-07T08:23:23;101860.63;;;16.72;78.35
79729;BME280;69218;52.132;5.418;2023-05-07T08:25:50;101862.53;;;16.70;78.43
79729;BME280;69218;52.132;5.418;2023-05-07T08:28:17;101859.88;;;16.70;79.17
79729;BME280;69218;52.132;5.418;2023-05-07T08:30:43;101858.19;;;16.69;80.57
79729;BME280;69218;52.132;5.418;2023-05-07T08:33:10;101851.22;;;16.68;78.64
79729;BME280;69218;52.132;5.418;2023-05-07T08:35:37;101851.94;;;16.70;79.69
79729;BME280;69218;52.132;5.418;2023-05-07T08:38:03;101858.66;;;16.74;78.55
79729;BME280;69218;52.132;5.418;2023-05-07T08:40:35;101854.03;;;16.76;79.96
79729;BME280;69218;52.132;5.418;2023-05-07T08:43:02;101858.25;;;16.79;80.01
79729;BME280;69218;52.132;5.418;2023-05-07T08:45:33;101856.00;;;16.84;80.08
79729;BME280;69218;52.132;5.418;2023-05-07T08:48:02;101857.56;;;16.86;79.21
79729;BME280;69218;52.132;5.418;2023-05-07T08:50:29;101854.47;;;16.91;79.54
79729;BME280;69218;52.132;5.418;2023-05-07T08:52:56;101861.88;;;16.97;79.32
79729;BME280;69218;52.132;5.418;2023-05-07T08:55:24;101857.41;;;16.97;79.54
79729;BME280;69218;52.132;5.418;2023-05-07T08:57:51;101858.97;;;17.00;78.94
79729;BME280;69218;52.132;5.418;2023-05-07T09:00:19;101856.03;;;16.93;78.98
79729;BME280;69218;52.132;5.418;2023-05-07T09:02:46;101861.47;;;17.01;79.16
79729;BME280;69218;52.132;5.418;2023-05-07T09:05:12;101870.94;;;17.04;79.29
79729;BME280;69218;52.132;5.418;2023-05-07T09:07:39;101861.63;;;17.00;79.57
79729;BME280;69218;52.132;5.418;2023-05-07T09:10:06;101859.13;;;16.98;80.15
79729;BME280;69218;52.132;5.418;2023-05-07T09:12:33;101851.28;;;16.97;80.05
79729;BME280;69218;52.132;5.418;2023-05-07T09:15:01;101857.28;;;16.99;80.74
79729;BME280;69218;52.132;5.418;2023-05-07T09:17:29;101856.59;;;17.07;80.18
79729;BME280;69218;52.132;5.418;2023-05-07T09:19:55;101855.75;;;17.06;79.31
79729;BME280;69218;52.132;5.418;2023-05-07T09:22:22;101858.69;;;17.13;80.43
79729;BME280;69218;52.132;5.418;2023-05-07T09:24:49;101862.03;;;17.15;79.94
79729;BME280;69218;52.132;5.418;2023-05-07T09:27:17;101861.19;;;17.14;78.95
79729;BME280;69218;52.132;5.418;2023-05-07T09:29:44;101863.13;;;17.12;79.55
79729;BME280;69218;52.132;5.418;2023-05-07T09:32:11;101866.22;;;17.08;78.19
79729;BME280;69218;52.132;5.418;2023-05-07T09:34:37;101861.47;;;17.11;77.81
79729;BME280;69218;52.132;5.418;2023-05-07T09:37:05;101868.72;;;17.09;77.71
79729;BME280;69218;52.132;5.418;2023-05-07T09:39:42;101867.34;;;17.15;77.69
79729;BME280;69218;52.132;5.418;2023-05-07T09:42:10;101863.28;;;17.20;77.52
79729;BME280;69218;52.132;5.418;2023-05-07T09:44:38;101867.47;;;17.23;77.91
79729;BME280;69218;52.132;5.418;2023-05-07T09:47:05;101869.56;;;17.29;77.92
79729;BME280;69218;52.132;5.418;2023-05-07T09:49:36;101867.19;;;17.36;76.93
79729;BME280;69218;52.132;5.418;2023-05-07T09:52:05;101865.78;;;17.41;77.12
79729;BME280;69218;52.132;5.418;2023-05-07T09:54:33;101865.91;;;17.40;76.48
79729;BME280;69218;52.132;5.418;2023-05-07T09:57:01;101870.63;;;17.46;77.24
79729;BME280;69218;52.132;5.418;2023-05-07T09:59:31;101875.38;;;17.52;76.18
79729;BME280;69218;52.132;5.418;2023-05-07T10:01:59;101873.56;;;17.52;76.44
79729;BME280;69218;52.132;5.418;2023-05-07T10:04:31;101878.16;;;17.60;76.43
79729;BME280;69218;52.132;5.418;2023-05-07T10:06:58;101882.34;;;17.63;75.95
79729;BME280;69218;52.132;5.418;2023-05-07T10:09:26;101885.28;;;17.69;76.05
79729;BME280;69218;52.132;5.418;2023-05-07T10:11:53;101880.25;;;17.66;77.15
79729;BME280;69218;52.132;5.418;2023-05-07T10:14:21;101888.66;;;17.71;76.36
79729;BME280;69218;52.132;5.418;2023-05-07T10:16:48;101877.31;;;17.79;76.15
79729;BME280;69218;52.132;5.418;2023-05-07T10:19:15;101878.41;;;17.86;74.85
79729;BME280;69218;52.132;5.418;2023-05-07T10:21:50;101885.50;;;17.95;74.89
79729;BME280;69218;52.132;5.418;2023-05-07T10:24:29;101882.81;;;18.05;75.82
79729;BME280;69218;52.132;5.418;2023-05-07T10:26:59;101885.59;;;18.13;74.16
79729;BME280;69218;52.132;5.418;2023-05-07T10:34:43;101878.72;;;18.48;72.83
79729;BME280;69218;52.132;5.418;2023-05-07T10:37:12;101880.47;;;18.57;73.06
79729;BME280;69218;52.132;5.418;2023-05-07T10:39:39;101884.06;;;18.65;73.12
79729;BME280;69218;52.132;5.418;2023-05-07T10:42:08;101879.31;;;18.69;72.50
79729;BME280;69218;52.132;5.418;2023-05-07T10:44:35;101878.34;;;18.70;72.05
79729;BME280;69218;52.132;5.418;2023-05-07T10:47:13;101870.59;;;18.94;72.18
79729;BME280;69218;52.132;5.418;2023-05-07T10:52:16;101875.81;;;19.40;70.98
79729;BME280;69218;52.132;5.418;2023-05-07T10:54:44;101874.44;;;19.36;70.01
79729;BME280;69218;52.132;5.418;2023-05-07T10:59:59;101879.53;;;19.47;68.68
79729;BME280;69218;52.132;5.418;2023-05-07T11:05:28;101873.38;;;19.46;69.04
79729;BME280;69218;52.132;5.418;2023-05-07T11:07:56;101862.97;;;19.53;68.88
79729;BME280;69218;52.132;5.418;2023-05-07T11:10:23;101866.81;;;19.59;68.67
79729;BME280;69218;52.132;5.418;2023-05-07T11:13:09;101872.69;;;19.62;68.04
79729;BME280;69218;52.132;5.418;2023-05-07T11:15:40;101872.22;;;19.67;68.67
79729;BME280;69218;52.132;5.418;2023-05-07T11:18:10;101876.22;;;19.71;68.67
79729;BME280;69218;52.132;5.418;2023-05-07T11:26:05;101881.84;;;19.94;67.70
79729;BME280;69218;52.132;5.418;2023-05-07T11:28:39;101886.28;;;20.11;68.43
79729;BME280;69218;52.132;5.418;2023-05-07T11:31:06;101879.97;;;20.12;66.82
79729;BME280;69218;52.132;5.418;2023-05-07T11:33:34;101884.00;;;20.16;65.74
79729;BME280;69218;52.132;5.418;2023-05-07T11:36:05;101883.69;;;20.27;66.68
79729;BME280;69218;52.132;5.418;2023-05-07T11:38:35;101883.25;;;20.40;66.00
79729;BME280;69218;52.132;5.418;2023-05-07T11:41:02;101881.66;;;20.64;65.83
79729;BME280;69218;52.132;5.418;2023-05-07T11:43:32;101875.38;;;20.73;65.66
79729;BME280;69218;52.132;5.418;2023-05-07T11:46:09;101880.06;;;20.87;65.07
79729;BME280;69218;52.132;5.418;2023-05-07T11:48:36;101878.91;;;20.90;65.88
79729;BME280;69218;52.132;5.418;2023-05-07T11:51:05;101876.59;;;21.03;65.89
79729;BME280;69218;52.132;5.418;2023-05-07T11:53:38;101881.25;;;21.01;65.02
79729;BME280;69218;52.132;5.418;2023-05-07T11:56:09;101881.44;;;21.07;66.03
79729;BME280;69218;52.132;5.418;2023-05-07T11:58:36;101876.06;;;20.99;65.03
79729;BME280;69218;52.132;5.418;2023-05-07T12:01:03;101875.75;;;20.94;64.86
79729;BME280;69218;52.132;5.418;2023-05-07T12:03:30;101873.75;;;21.04;65.01
79729;BME280;69218;52.132;5.418;2023-05-07T12:06:01;101877.63;;;21.34;65.40
79729;BME280;69218;52.132;5.418;2023-05-07T12:08:28;101880.94;;;21.53;63.59
79729;BME280;69218;52.132;5.418;2023-05-07T12:10:54;101875.09;;;21.49;62.62
79729;BME280;69218;52.132;5.418;2023-05-07T12:13:23;101884.28;;;21.55;63.42
79729;BME280;69218;52.132;5.418;2023-05-07T12:15:54;101879.44;;;21.66;63.19
79729;BME280;69218;52.132;5.418;2023-05-07T12:18:22;101882.19;;;21.98;63.01
79729;BME280;69218;52.132;5.418;2023-05-07T12:20:49;101874.88;;;22.39;61.16
79729;BME280;69218;52.132;5.418;2023-05-07T12:23:16;101880.38;;;22.45;61.50
79729;BME280;69218;52.132;5.418;2023-05-07T12:25:43;101877.50;;;22.47;61.29
79729;BME280;69218;52.132;5.418;2023-05-07T12:28:14;101881.06;;;22.70;59.92
79729;BME280;69218;52.132;5.418;2023-05-07T12:30:46;101881.97;;;22.55;59.87
79729;BME280;69218;52.132;5.418;2023-05-07T12:33:18;101882.22;;;22.45;60.50
79729;BME280;69218;52.132;5.418;2023-05-07T12:35:47;101879.03;;;22.72;60.20
79729;BME280;69218;52.132;5.418;2023-05-07T12:38:14;101881.00;;;22.87;57.67
79729;BME280;69218;52.132;5.418;2023-05-07T12:40:49;101871.63;;;22.83;59.71
79729;BME280;69218;52.132;5.418;2023-05-07T12:43:24;101874.34;;;22.74;59.78
79729;BME280;69218;52.132;5.418;2023-05-07T12:45:54;101881.59;;;22.66;58.44
79729;BME280;69218;52.132;5.418;2023-05-07T12:48:22;101875.47;;;22.88;59.35
79729;BME280;69218;52.132;5.418;2023-05-07T12:50:59;101877.06;;;23.20;58.54
79729;BME280;69218;52.132;5.418;2023-05-07T12:53:26;101870.34;;;23.24;56.82
79729;BME280;69218;52.132;5.418;2023-05-07T12:55:55;101872.88;;;23.41;57.00
79729;BME280;69218;52.132;5.418;2023-05-07T12:58:31;101872.94;;;23.33;55.89
79729;BME280;69218;52.132;5.418;2023-05-07T13:01:00;101876.38;;;23.41;56.93
79729;BME280;69218;52.132;5.418;2023-05-07T13:03:32;101879.00;;;23.49;55.82
79729;BME280;69218;52.132;5.418;2023-05-07T13:06:04;101879.22;;;23.40;54.51
79729;BME280;69218;52.132;5.418;2023-05-07T13:08:36;101882.00;;;23.46;53.52
79729;BME280;69218;52.132;5.418;2023-05-07T13:11:04;101884.25;;;23.57;55.70